sensor_id;sensor_type;location;lat;lon;timestamp;temperature;humidity
4431;DHT22;2228;48.140;11.488;2022-12-07T00:00:50;3.80;1.00
4431;DHT22;2228;48.140;11.488;2022-12-07T00:03:17;3.80;1.00
4431;DHT22;2228;48.140;11.488;2022-12-07T00:05:45;3.80;1.00
4431;DHT22;2228;48.140;11.488;2022-12-07T00:08:12;3.70;1.00
4431;DHT22;2228;48.140;11.488;2022-12-07T00:10:39;3.80;1.00
4431;DHT22;2228;48.140;11.488;2022-12-07T00:13:06;3.70;1.00
4431;DHT22;2228;48.140;11.488;2022-12-07T00:15:34;3.70;1.00
4431;DHT22;2228;48.140;11.488;2022-12-07T00:18:01;3.80;1.00
4431;DHT22;2228;48.140;11.488;2022-12-07T00:20:28;3.80;1.00
4431;DHT22;2228;48.140;11.488;2022-12-07T00:22:57;3.80;1.00
4431;DHT22;2228;48.140;11.488;2022-12-07T00:25:24;3.70;1.00
4431;DHT22;2228;48.140;11.488;2022-12-07T00:27:52;3.70;1.00
4431;DHT22;2228;48.140;11.488;2022-12-07T00:30:21;3.80;1.00
4431;DHT22;2228;48.140;11.488;2022-12-07T00:32:48;3.80;1.00
4431;DHT22;2228;48.140;11.488;2022-12-07T00:35:15;3.80;1.00
4431;DHT22;2228;48.140;11.488;2022-12-07T00:37:42;3.80;1.00
4431;DHT22;2228;48.140;11.488;2022-12-07T00:40:11;3.80;1.00
4431;DHT22;2228;48.140;11.488;2022-12-07T00:42:38;3.90;1.00
4431;DHT22;2228;48.140;11.488;2022-12-07T00:45:07;3.80;1.00
4431;DHT22;2228;48.140;11.488;2022-12-07T00:47:34;3.80;1.00
4431;DHT22;2228;48.140;11.488;2022-12-07T00:50:01;3.80;1.00
4431;DHT22;2228;48.140;11.488;2022-12-07T00:52:28;3.90;1.00
4431;DHT22;2228;48.140;11.488;2022-12-07T00:54:55;4.00;1.00
4431;DHT22;2228;48.140;11.488;2022-12-07T00:57:23;3.90;1.00
4431;DHT22;2228;48.140;11.488;2022-12-07T00:59:50;3.90;1.00
4431;DHT22;2228;48.140;11.488;2022-12-07T01:02:20;3.70;1.00
4431;DHT22;2228;48.140;11.488;2022-12-07T01:04:48;3.80;1.00
4431;DHT22;2228;48.140;11.488;2022-12-07T01:07:15;3.80;1.00
4431;DHT22;2228;48.140;11.488;2022-12-07T01:09:42;3.90;1.00
4431;DHT22;2228;48.140;11.488;2022-12-07T01:12:09;3.80;1.00
4431;DHT22;2228;48.140;11.488;2022-12-07T01:14:37;3.80;1.00
4431;DHT22;2228;48.140;11.488;2022-12-07T01:17:04;3.80;1.00
4431;DHT22;2228;48.140;11.488;2022-12-07T01:19:31;3.80;1.00
4431;DHT22;2228;48.140;11.488;2022-12-07T01:21:58;3.70;1.00
4431;DHT22;2228;48.140;11.488;2022-12-07T01:24:27;3.80;1.00
4431;DHT22;2228;48.140;11.488;2022-12-07T01:26:54;3.90;1.00
4431;DHT22;2228;48.140;11.488;2022-12-07T01:29:21;3.80;1.00
4431;DHT22;2228;48.140;11.488;2022-12-07T01:31:50;3.80;1.00
4431;DHT22;2228;48.140;11.488;2022-12-07T01:34:17;3.70;1.00
4431;DHT22;2228;48.140;11.488;2022-12-07T01:36:44;3.80;1.00
4431;DHT22;2228;48.140;11.488;2022-12-07T01:39:11;3.70;1.00
4431;DHT22;2228;48.140;11.488;2022-12-07T01:41:39;3.70;1.00
4431;DHT22;2228;48.140;11.488;2022-12-07T01:44:17;3.70;1.00
4431;DHT22;2228;48.140;11.488;2022-12-07T01:46:46;3.70;1.00
4431;DHT22;2228;48.140;11.488;2022-12-07T01:49:20;3.60;1.00
4431;DHT22;2228;48.140;11.488;2022-12-07T01:51:49;3.60;1.00
4431;DHT22;2228;48.140;11.488;2022-12-07T01:54:18;3.60;1.00
4431;DHT22;2228;48.140;11.488;2022-12-07T01:56:50;3.60;1.00
4431;DHT22;2228;48.140;11.488;2022-12-07T01:59:21;3.70;1.00
4431;DHT22;2228;48.140;11.488;2022-12-07T02:01:50;3.70;1.00
4431;DHT22;2228;48.140;11.488;2022-12-07T02:04:19;3.70;1.00
4431;DHT22;2228;48.140;11.488;2022-12-07T02:06:48;3.70;1.00
4431;DHT22;2228;48.140;11.488;2022-12-07T02:09:17;3.80;1.00
4431;DHT22;2228;48.140;11.488;2022-12-07T02:11:44;3.70;1.00
4431;DHT22;2228;48.140;11.488;2022-12-07T02:14:11;3.80;1.00
4431;DHT22;2228;48.140;11.488;2022-12-07T02:16:46;3.80;1.00
4431;DHT22;2228;48.140;11.488;2022-12-07T02:22:47;3.80;1.00
4431;DHT22;2228;48.140;11.488;2022-12-07T02:25:26;3.70;1.00
4431;DHT22;2228;48.140;11.488;2022-12-07T02:28:02;3.80;1.00
4431;DHT22;2228;48.140;11.488;2022-12-07T02:30:35;3.80;1.00
4431;DHT22;2228;48.140;11.488;2022-12-07T02:33:11;3.90;1.00
4431;DHT22;2228;48.140;11.488;2022-12-07T02:35:42;3.80;1.00
4431;DHT22;2228;48.140;11.488;2022-12-07T02:38:18;3.70;1.00
4431;DHT22;2228;48.140;11.488;2022-12-07T02:40:53;3.50;1.00
4431;DHT22;2228;48.140;11.488;2022-12-07T02:43:24;3.50;1.00
4431;DHT22;2228;48.140;11.488;2022-12-07T02:45:56;3.50;1.00
4431;DHT22;2228;48.140;11.488;2022-12-07T02:48:25;3.60;1.00
4431;DHT22;2228;48.140;11.488;2022-12-07T02:50:54;3.90;1.00
4431;DHT22;2228;48.140;11.488;2022-12-07T02:53:31;3.70;1.00
4431;DHT22;2228;48.140;11.488;2022-12-07T02:58:53;3.90;1.00
4431;DHT22;2228;48.140;11.488;2022-12-07T03:01:32;4.00;1.00
4431;DHT22;2228;48.140;11.488;2022-12-07T03:04:10;3.90;1.00
4431;DHT22;2228;48.140;11.488;2022-12-07T03:06:43;3.80;1.00
4431;DHT22;2228;48.140;11.488;2022-12-07T03:09:19;3.90;1.00
4431;DHT22;2228;48.140;11.488;2022-12-07T03:11:49;3.80;1.00
4431;DHT22;2228;48.140;11.488;2022-12-07T03:14:21;4.00;1.00
4431;DHT22;2228;48.140;11.488;2022-12-07T03:16:57;4.10;1.00
4431;DHT22;2228;48.140;11.488;2022-12-07T03:19:27;4.00;1.00
4431;DHT22;2228;48.140;11.488;2022-12-07T03:21:57;4.00;1.00
4431;DHT22;2228;48.140;11.488;2022-12-07T03:24:27;4.10;1.00
4431;DHT22;2228;48.140;11.488;2022-12-07T03:27:07;4.10;1.00
4431;DHT22;2228;48.140;11.488;2022-12-07T03:29:38;4.10;1.00
4431;DHT22;2228;48.140;11.488;2022-12-07T03:32:14;4.00;1.00
4431;DHT22;2228;48.140;11.488;2022-12-07T03:34:47;4.00;1.00
4431;DHT22;2228;48.140;11.488;2022-12-07T03:37:18;3.90;1.00
4431;DHT22;2228;48.140;11.488;2022-12-07T03:39:52;3.70;1.00
4431;DHT22;2228;48.140;11.488;2022-12-07T03:42:24;3.80;1.00
4431;DHT22;2228;48.140;11.488;2022-12-07T03:44:52;3.70;1.00
4431;DHT22;2228;48.140;11.488;2022-12-07T03:47:26;3.60;1.00
4431;DHT22;2228;48.140;11.488;2022-12-07T03:49:58;3.50;1.00
4431;DHT22;2228;48.140;11.488;2022-12-07T03:52:32;3.50;1.00
4431;DHT22;2228;48.140;11.488;2022-12-07T03:55:06;3.70;1.00
4431;DHT22;2228;48.140;11.488;2022-12-07T03:57:35;3.70;1.00
4431;DHT22;2228;48.140;11.488;2022-12-07T04:00:06;3.70;1.00
4431;DHT22;2228;48.140;11.488;2022-12-07T04:02:34;3.80;1.00
4431;DHT22;2228;48.140;11.488;2022-12-07T04:05:03;3.80;1.00
4431;DHT22;2228;48.140;11.488;2022-12-07T04:07:30;3.80;1.00
4431;DHT22;2228;48.140;11.488;2022-12-07T04:09:57;3.80;1.00
4431;DHT22;2228;48.140;11.488;2022-12-07T04:12:24;3.60;1.00
4431;DHT22;2228;48.140;11.488;2022-12-07T04:14:51;3.60;1.00
4431;DHT22;2228;48.140;11.488;2022-12-07T04:17:18;3.50;1.00
4431;DHT22;2228;48.140;11.488;2022-12-07T04:19:46;3.40;1.00
4431;DHT22;2228;48.140;11.488;2022-12-07T04:22:13;3.50;1.00
4431;DHT22;2228;48.140;11.488;2022-12-07T04:24:40;3.40;1.00
4431;DHT22;2228;48.140;11.488;2022-12-07T04:27:07;3.40;1.00
4431;DHT22;2228;48.140;11.488;2022-12-07T04:29:34;3.40;1.00
4431;DHT22;2228;48.140;11.488;2022-12-07T04:32:01;3.30;58.90
4431;DHT22;2228;48.140;11.488;2022-12-07T04:34:28;3.30;90.00
4431;DHT22;2228;48.140;11.488;2022-12-07T04:36:57;3.30;51.70
4431;DHT22;2228;48.140;11.488;2022-12-07T04:39:26;3.20;31.40
4431;DHT22;2228;48.140;11.488;2022-12-07T04:41:54;3.20;99.90
4431;DHT22;2228;48.140;11.488;2022-12-07T04:44:21;3.10;99.90
4431;DHT22;2228;48.140;11.488;2022-12-07T04:46:49;3.10;99.90
4431;DHT22;2228;48.140;11.488;2022-12-07T04:49:16;3.10;99.90
4431;DHT22;2228;48.140;11.488;2022-12-07T04:51:44;3.10;99.90
4431;DHT22;2228;48.140;11.488;2022-12-07T04:54:13;3.10;99.90
4431;DHT22;2228;48.140;11.488;2022-12-07T04:56:41;3.10;99.90
4431;DHT22;2228;48.140;11.488;2022-12-07T04:59:09;3.10;99.90
4431;DHT22;2228;48.140;11.488;2022-12-07T05:01:37;3.20;99.90
4431;DHT22;2228;48.140;11.488;2022-12-07T05:04:04;3.10;99.90
4431;DHT22;2228;48.140;11.488;2022-12-07T05:06:31;3.00;99.90
4431;DHT22;2228;48.140;11.488;2022-12-07T05:08:58;3.00;99.90
4431;DHT22;2228;48.140;11.488;2022-12-07T05:11:28;3.10;99.90
4431;DHT22;2228;48.140;11.488;2022-12-07T05:14:10;3.10;99.90
4431;DHT22;2228;48.140;11.488;2022-12-07T05:16:38;3.10;99.90
4431;DHT22;2228;48.140;11.488;2022-12-07T05:19:06;3.10;99.90
4431;DHT22;2228;48.140;11.488;2022-12-07T05:21:34;3.00;99.90
4431;DHT22;2228;48.140;11.488;2022-12-07T05:24:01;3.00;99.90
4431;DHT22;2228;48.140;11.488;2022-12-07T05:26:30;3.10;99.90
4431;DHT22;2228;48.140;11.488;2022-12-07T05:28:57;3.00;99.90
4431;DHT22;2228;48.140;11.488;2022-12-07T05:31:25;3.00;99.90
4431;DHT22;2228;48.140;11.488;2022-12-07T05:33:53;2.90;99.90
4431;DHT22;2228;48.140;11.488;2022-12-07T05:36:20;3.00;99.90
4431;DHT22;2228;48.140;11.488;2022-12-07T05:38:47;2.90;99.90
4431;DHT22;2228;48.140;11.488;2022-12-07T05:41:17;3.00;99.90
4431;DHT22;2228;48.140;11.488;2022-12-07T05:44:03;3.00;99.90
4431;DHT22;2228;48.140;11.488;2022-12-07T05:46:31;2.90;99.90
4431;DHT22;2228;48.140;11.488;2022-12-07T05:48:58;2.80;99.90
4431;DHT22;2228;48.140;11.488;2022-12-07T05:51:25;2.80;99.90
4431;DHT22;2228;48.140;11.488;2022-12-07T05:53:52;2.80;99.90
4431;DHT22;2228;48.140;11.488;2022-12-07T05:56:19;2.70;99.90
4431;DHT22;2228;48.140;11.488;2022-12-07T05:58:46;2.90;99.90
4431;DHT22;2228;48.140;11.488;2022-12-07T06:01:32;2.80;99.90
4431;DHT22;2228;48.140;11.488;2022-12-07T06:03:59;2.90;99.90
4431;DHT22;2228;48.140;11.488;2022-12-07T06:06:26;2.90;99.90
4431;DHT22;2228;48.140;11.488;2022-12-07T06:08:54;2.80;99.90
4431;DHT22;2228;48.140;11.488;2022-12-07T06:11:21;2.90;99.90
4431;DHT22;2228;48.140;11.488;2022-12-07T06:14:05;3.00;99.90
4431;DHT22;2228;48.140;11.488;2022-12-07T06:16:34;2.70;99.90
4431;DHT22;2228;48.140;11.488;2022-12-07T06:19:03;2.70;99.90
4431;DHT22;2228;48.140;11.488;2022-12-07T06:21:30;2.90;99.90
4431;DHT22;2228;48.140;11.488;2022-12-07T06:23:57;2.90;99.90
4431;DHT22;2228;48.140;11.488;2022-12-07T06:26:24;2.90;99.90
4431;DHT22;2228;48.140;11.488;2022-12-07T06:28:51;2.90;99.90
4431;DHT22;2228;48.140;11.488;2022-12-07T06:31:18;2.90;99.90
4431;DHT22;2228;48.140;11.488;2022-12-07T06:33:46;2.90;99.90
4431;DHT22;2228;48.140;11.488;2022-12-07T06:36:13;3.00;99.90
4431;DHT22;2228;48.140;11.488;2022-12-07T06:38:40;2.90;99.90
4431;DHT22;2228;48.140;11.488;2022-12-07T06:41:08;2.90;99.90
4431;DHT22;2228;48.140;11.488;2022-12-07T06:43:35;2.80;99.90
4431;DHT22;2228;48.140;11.488;2022-12-07T06:46:02;2.80;99.90
4431;DHT22;2228;48.140;11.488;2022-12-07T06:48:29;2.70;99.90
4431;DHT22;2228;48.140;11.488;2022-12-07T06:50:57;2.90;99.90
4431;DHT22;2228;48.140;11.488;2022-12-07T06:53:24;2.80;99.90
4431;DHT22;2228;48.140;11.488;2022-12-07T06:55:51;2.70;99.90
4431;DHT22;2228;48.140;11.488;2022-12-07T06:58:18;2.70;99.90
4431;DHT22;2228;48.140;11.488;2022-12-07T07:00:48;2.70;99.90
4431;DHT22;2228;48.140;11.488;2022-12-07T07:03:15;2.70;99.90
4431;DHT22;2228;48.140;11.488;2022-12-07T07:05:42;2.70;99.90
4431;DHT22;2228;48.140;11.488;2022-12-07T07:08:11;2.70;99.90
4431;DHT22;2228;48.140;11.488;2022-12-07T07:10:39;2.70;99.90
4431;DHT22;2228;48.140;11.488;2022-12-07T07:13:06;2.70;99.90
4431;DHT22;2228;48.140;11.488;2022-12-07T07:15:34;2.70;99.90
4431;DHT22;2228;48.140;11.488;2022-12-07T07:18:01;2.80;99.90
4431;DHT22;2228;48.140;11.488;2022-12-07T07:20:28;2.80;99.90
4431;DHT22;2228;48.140;11.488;2022-12-07T07:22:56;2.90;97.90
4431;DHT22;2228;48.140;11.488;2022-12-07T07:25:24;2.80;67.10
4431;DHT22;2228;48.140;11.488;2022-12-07T07:27:51;2.70;99.90
4431;DHT22;2228;48.140;11.488;2022-12-07T07:30:18;2.70;99.90
4431;DHT22;2228;48.140;11.488;2022-12-07T07:32:46;2.80;99.90
4431;DHT22;2228;48.140;11.488;2022-12-07T07:35:13;2.90;99.90
4431;DHT22;2228;48.140;11.488;2022-12-07T07:37:40;2.80;34.70
4431;DHT22;2228;48.140;11.488;2022-12-07T07:40:11;2.60;99.90
4431;DHT22;2228;48.140;11.488;2022-12-07T07:42:39;2.60;99.90
4431;DHT22;2228;48.140;11.488;2022-12-07T07:45:07;2.60;99.90
4431;DHT22;2228;48.140;11.488;2022-12-07T07:47:35;2.60;99.90
4431;DHT22;2228;48.140;11.488;2022-12-07T07:50:02;2.80;99.90
4431;DHT22;2228;48.140;11.488;2022-12-07T07:52:29;2.80;98.30
4431;DHT22;2228;48.140;11.488;2022-12-07T07:54:57;2.60;99.90
4431;DHT22;2228;48.140;11.488;2022-12-07T07:57:24;2.60;99.90
4431;DHT22;2228;48.140;11.488;2022-12-07T07:59:53;2.80;99.90
4431;DHT22;2228;48.140;11.488;2022-12-07T08:02:20;2.80;99.90
4431;DHT22;2228;48.140;11.488;2022-12-07T08:04:48;2.70;99.90
4431;DHT22;2228;48.140;11.488;2022-12-07T08:07:15;2.60;99.90
4431;DHT22;2228;48.140;11.488;2022-12-07T08:09:43;2.60;99.90
4431;DHT22;2228;48.140;11.488;2022-12-07T08:12:10;2.60;99.90
4431;DHT22;2228;48.140;11.488;2022-12-07T08:14:37;2.70;99.90
4431;DHT22;2228;48.140;11.488;2022-12-07T08:17:05;2.70;99.90
4431;DHT22;2228;48.140;11.488;2022-12-07T08:19:33;2.80;99.90
4431;DHT22;2228;48.140;11.488;2022-12-07T08:22:00;2.60;99.90
4431;DHT22;2228;48.140;11.488;2022-12-07T08:24:27;2.60;99.90
4431;DHT22;2228;48.140;11.488;2022-12-07T08:26:54;2.70;99.90
4431;DHT22;2228;48.140;11.488;2022-12-07T08:29:21;2.80;99.90
4431;DHT22;2228;48.140;11.488;2022-12-07T08:31:48;2.90;80.10
4431;DHT22;2228;48.140;11.488;2022-12-07T08:34:16;3.10;99.90
4431;DHT22;2228;48.140;11.488;2022-12-07T08:36:43;3.00;1.00
4431;DHT22;2228;48.140;11.488;2022-12-07T08:39:10;2.90;49.20
4431;DHT22;2228;48.140;11.488;2022-12-07T08:41:37;3.00;99.90
4431;DHT22;2228;48.140;11.488;2022-12-07T08:44:05;3.20;17.70
4431;DHT22;2228;48.140;11.488;2022-12-07T08:46:34;3.20;11.10
4431;DHT22;2228;48.140;11.488;2022-12-07T08:49:05;3.30;13.50
4431;DHT22;2228;48.140;11.488;2022-12-07T08:51:35;3.30;1.00
4431;DHT22;2228;48.140;11.488;2022-12-07T08:54:05;3.30;1.00
4431;DHT22;2228;48.140;11.488;2022-12-07T08:56:33;3.40;1.00
4431;DHT22;2228;48.140;11.488;2022-12-07T08:59:01;3.50;1.00
4431;DHT22;2228;48.140;11.488;2022-12-07T09:01:28;3.70;1.00
4431;DHT22;2228;48.140;11.488;2022-12-07T09:03:55;3.70;1.00
4431;DHT22;2228;48.140;11.488;2022-12-07T09:06:22;3.70;1.00
4431;DHT22;2228;48.140;11.488;2022-12-07T09:08:53;3.60;1.00
4431;DHT22;2228;48.140;11.488;2022-12-07T09:11:21;3.80;1.00
4431;DHT22;2228;48.140;11.488;2022-12-07T09:13:48;3.80;1.00
4431;DHT22;2228;48.140;11.488;2022-12-07T09:16:15;3.80;1.00
4431;DHT22;2228;48.140;11.488;2022-12-07T09:18:42;3.70;1.00
4431;DHT22;2228;48.140;11.488;2022-12-07T09:21:09;3.90;1.00
4431;DHT22;2228;48.140;11.488;2022-12-07T09:23:36;4.10;1.00
4431;DHT22;2228;48.140;11.488;2022-12-07T09:26:05;4.20;1.00
4431;DHT22;2228;48.140;11.488;2022-12-07T09:28:32;4.50;1.00
4431;DHT22;2228;48.140;11.488;2022-12-07T09:30:59;4.70;99.90
4431;DHT22;2228;48.140;11.488;2022-12-07T09:33:26;4.60;99.90
4431;DHT22;2228;48.140;11.488;2022-12-07T09:35:53;4.50;99.90
4431;DHT22;2228;48.140;11.488;2022-12-07T09:38:20;4.40;99.90
4431;DHT22;2228;48.140;11.488;2022-12-07T09:40:48;4.40;1.00
4431;DHT22;2228;48.140;11.488;2022-12-07T09:43:19;4.30;1.00
4431;DHT22;2228;48.140;11.488;2022-12-07T09:45:56;4.50;1.00
4431;DHT22;2228;48.140;11.488;2022-12-07T09:48:39;4.90;99.90
4431;DHT22;2228;48.140;11.488;2022-12-07T09:51:14;5.00;99.90
4431;DHT22;2228;48.140;11.488;2022-12-07T09:53:42;5.00;99.90
4431;DHT22;2228;48.140;11.488;2022-12-07T09:56:12;5.10;99.90
4431;DHT22;2228;48.140;11.488;2022-12-07T09:58:42;5.10;99.90
4431;DHT22;2228;48.140;11.488;2022-12-07T10:01:13;5.10;99.90
4431;DHT22;2228;48.140;11.488;2022-12-07T10:03:49;5.20;99.90
4431;DHT22;2228;48.140;11.488;2022-12-07T10:06:31;5.20;99.90
4431;DHT22;2228;48.140;11.488;2022-12-07T10:08:58;5.10;99.90
4431;DHT22;2228;48.140;11.488;2022-12-07T10:11:25;5.00;99.90
4431;DHT22;2228;48.140;11.488;2022-12-07T10:13:53;4.80;99.90
4431;DHT22;2228;48.140;11.488;2022-12-07T10:16:35;4.70;99.90
4431;DHT22;2228;48.140;11.488;2022-12-07T10:19:18;4.80;99.90
4431;DHT22;2228;48.140;11.488;2022-12-07T10:22:09;5.10;99.90
4431;DHT22;2228;48.140;11.488;2022-12-07T10:24:46;5.10;99.90
4431;DHT22;2228;48.140;11.488;2022-12-07T10:27:31;5.20;99.90
4431;DHT22;2228;48.140;11.488;2022-12-07T10:30:07;5.20;99.90
4431;DHT22;2228;48.140;11.488;2022-12-07T10:32:36;5.20;99.90
4431;DHT22;2228;48.140;11.488;2022-12-07T10:35:21;5.30;99.90
4431;DHT22;2228;48.140;11.488;2022-12-07T10:37:49;5.40;99.90
4431;DHT22;2228;48.140;11.488;2022-12-07T10:40:26;5.70;99.90
4431;DHT22;2228;48.140;11.488;2022-12-07T10:43:04;5.90;99.90
4431;DHT22;2228;48.140;11.488;2022-12-07T10:45:38;5.90;99.90
4431;DHT22;2228;48.140;11.488;2022-12-07T10:48:15;5.60;99.90
4431;DHT22;2228;48.140;11.488;2022-12-07T10:50:52;5.60;99.90
4431;DHT22;2228;48.140;11.488;2022-12-07T10:53:32;5.90;99.90
4431;DHT22;2228;48.140;11.488;2022-12-07T10:59:07;6.30;99.90
4431;DHT22;2228;48.140;11.488;2022-12-07T11:01:45;6.30;99.90
4431;DHT22;2228;48.140;11.488;2022-12-07T11:04:24;6.10;99.90
4431;DHT22;2228;48.140;11.488;2022-12-07T11:06:58;6.30;99.90
4431;DHT22;2228;48.140;11.488;2022-12-07T11:09:57;6.40;99.90
4431;DHT22;2228;48.140;11.488;2022-12-07T11:12:39;6.50;94.40
4431;DHT22;2228;48.140;11.488;2022-12-07T11:15:16;6.60;94.20
4431;DHT22;2228;48.140;11.488;2022-12-07T11:17:51;6.70;97.20
4431;DHT22;2228;48.140;11.488;2022-12-07T11:20:29;6.50;98.10
4431;DHT22;2228;48.140;11.488;2022-12-07T11:23:10;6.60;98.00
4431;DHT22;2228;48.140;11.488;2022-12-07T11:25:47;6.60;99.90
4431;DHT22;2228;48.140;11.488;2022-12-07T11:28:27;6.20;99.90
4431;DHT22;2228;48.140;11.488;2022-12-07T11:31:03;6.20;99.90
4431;DHT22;2228;48.140;11.488;2022-12-07T11:33:41;6.30;99.90
4431;DHT22;2228;48.140;11.488;2022-12-07T11:36:24;6.50;99.90
4431;DHT22;2228;48.140;11.488;2022-12-07T11:38:59;6.60;99.90
4431;DHT22;2228;48.140;11.488;2022-12-07T11:41:31;6.40;97.70
4431;DHT22;2228;48.140;11.488;2022-12-07T11:44:02;6.80;87.00
4431;DHT22;2228;48.140;11.488;2022-12-07T11:46:42;6.90;92.50
4431;DHT22;2228;48.140;11.488;2022-12-07T11:49:16;7.30;69.70
4431;DHT22;2228;48.140;11.488;2022-12-07T11:51:48;7.00;62.40
4431;DHT22;2228;48.140;11.488;2022-12-07T11:54:18;7.10;59.20
4431;DHT22;2228;48.140;11.488;2022-12-07T11:56:48;6.70;51.90
4431;DHT22;2228;48.140;11.488;2022-12-07T11:59:21;6.20;83.50
4431;DHT22;2228;48.140;11.488;2022-12-07T12:01:55;6.00;99.90
4431;DHT22;2228;48.140;11.488;2022-12-07T12:04:39;6.00;96.90
4431;DHT22;2228;48.140;11.488;2022-12-07T12:07:15;6.00;99.90
4431;DHT22;2228;48.140;11.488;2022-12-07T12:09:49;6.20;99.90
4431;DHT22;2228;48.140;11.488;2022-12-07T12:12:43;6.50;94.30
4431;DHT22;2228;48.140;11.488;2022-12-07T12:15:25;6.70;39.80
4431;DHT22;2228;48.140;11.488;2022-12-07T12:18:26;6.40;19.50
4431;DHT22;2228;48.140;11.488;2022-12-07T12:21:02;6.20;14.10
4431;DHT22;2228;48.140;11.488;2022-12-07T12:23:36;5.90;28.50
4431;DHT22;2228;48.140;11.488;2022-12-07T12:26:13;5.70;28.20
4431;DHT22;2228;48.140;11.488;2022-12-07T12:28:51;5.90;38.80
4431;DHT22;2228;48.140;11.488;2022-12-07T12:31:32;5.80;35.20
4431;DHT22;2228;48.140;11.488;2022-12-07T12:34:04;6.00;33.70
4431;DHT22;2228;48.140;11.488;2022-12-07T12:36:46;6.00;31.50
4431;DHT22;2228;48.140;11.488;2022-12-07T12:39:15;6.10;30.70
4431;DHT22;2228;48.140;11.488;2022-12-07T12:42:05;6.00;21.20
4431;DHT22;2228;48.140;11.488;2022-12-07T12:45:18;6.00;23.10
4431;DHT22;2228;48.140;11.488;2022-12-07T12:47:55;5.80;29.40
4431;DHT22;2228;48.140;11.488;2022-12-07T12:50:24;5.80;22.00
4431;DHT22;2228;48.140;11.488;2022-12-07T12:53:12;5.70;16.40
4431;DHT22;2228;48.140;11.488;2022-12-07T12:59:22;5.60;21.80
4431;DHT22;2228;48.140;11.488;2022-12-07T13:01:51;5.70;25.10
4431;DHT22;2228;48.140;11.488;2022-12-07T13:07:51;5.70;29.50
4431;DHT22;2228;48.140;11.488;2022-12-07T13:10:31;5.80;22.10
4431;DHT22;2228;48.140;11.488;2022-12-07T13:13:03;5.80;22.90
4431;DHT22;2228;48.140;11.488;2022-12-07T13:15:37;5.80;30.30
4431;DHT22;2228;48.140;11.488;2022-12-07T13:18:23;5.90;22.70
4431;DHT22;2228;48.140;11.488;2022-12-07T13:20:53;6.00;21.00
4431;DHT22;2228;48.140;11.488;2022-12-07T13:23:26;5.80;26.70
4431;DHT22;2228;48.140;11.488;2022-12-07T13:26:14;6.00;21.50
4431;DHT22;2228;48.140;11.488;2022-12-07T13:28:43;6.00;23.70
4431;DHT22;2228;48.140;11.488;2022-12-07T13:31:27;6.00;31.10
4431;DHT22;2228;48.140;11.488;2022-12-07T13:33:57;6.00;28.30
4431;DHT22;2228;48.140;11.488;2022-12-07T13:36:26;6.20;22.60
4431;DHT22;2228;48.140;11.488;2022-12-07T13:38:56;6.10;22.10
4431;DHT22;2228;48.140;11.488;2022-12-07T13:41:27;6.00;24.00
4431;DHT22;2228;48.140;11.488;2022-12-07T13:44:00;5.80;35.90
4431;DHT22;2228;48.140;11.488;2022-12-07T13:46:40;5.70;45.20
4431;DHT22;2228;48.140;11.488;2022-12-07T13:49:22;5.70;45.00
4431;DHT22;2228;48.140;11.488;2022-12-07T13:51:49;5.80;57.20
4431;DHT22;2228;48.140;11.488;2022-12-07T13:54:17;5.70;53.80
4431;DHT22;2228;48.140;11.488;2022-12-07T13:56:48;5.70;42.40
4431;DHT22;2228;48.140;11.488;2022-12-07T13:59:18;5.40;52.20
4431;DHT22;2228;48.140;11.488;2022-12-07T14:01:47;5.40;63.00
4431;DHT22;2228;48.140;11.488;2022-12-07T14:04:33;6.10;25.30
4431;DHT22;2228;48.140;11.488;2022-12-07T14:07:15;6.90;8.90
4431;DHT22;2228;48.140;11.488;2022-12-07T14:09:54;7.40;1.00
4431;DHT22;2228;48.140;11.488;2022-12-07T14:12:23;7.80;1.00
4431;DHT22;2228;48.140;11.488;2022-12-07T14:14:51;8.00;1.00
4431;DHT22;2228;48.140;11.488;2022-12-07T14:17:21;8.00;1.00
4431;DHT22;2228;48.140;11.488;2022-12-07T14:19:51;7.80;1.00
4431;DHT22;2228;48.140;11.488;2022-12-07T14:22:27;7.50;1.00
4431;DHT22;2228;48.140;11.488;2022-12-07T14:25:00;7.40;1.00
4431;DHT22;2228;48.140;11.488;2022-12-07T14:27:33;7.50;1.00
4431;DHT22;2228;48.140;11.488;2022-12-07T14:30:02;7.40;1.00
4431;DHT22;2228;48.140;11.488;2022-12-07T14:32:30;7.00;1.00
4431;DHT22;2228;48.140;11.488;2022-12-07T14:35:02;6.60;1.00
4431;DHT22;2228;48.140;11.488;2022-12-07T14:37:30;5.90;1.00
4431;DHT22;2228;48.140;11.488;2022-12-07T14:39:57;5.80;1.00
4431;DHT22;2228;48.140;11.488;2022-12-07T14:42:27;5.60;1.00
4431;DHT22;2228;48.140;11.488;2022-12-07T14:44:56;5.30;1.00
4431;DHT22;2228;48.140;11.488;2022-12-07T14:47:25;5.10;5.90
4431;DHT22;2228;48.140;11.488;2022-12-07T14:49:52;4.90;11.30
4431;DHT22;2228;48.140;11.488;2022-12-07T14:52:23;4.80;21.90
4431;DHT22;2228;48.140;11.488;2022-12-07T14:54:50;4.60;28.40
4431;DHT22;2228;48.140;11.488;2022-12-07T14:57:19;4.50;45.40
4431;DHT22;2228;48.140;11.488;2022-12-07T14:59:46;4.40;68.90
4431;DHT22;2228;48.140;11.488;2022-12-07T15:02:15;4.30;82.70
4431;DHT22;2228;48.140;11.488;2022-12-07T15:04:42;4.20;92.10
4431;DHT22;2228;48.140;11.488;2022-12-07T15:07:14;4.10;93.10
4431;DHT22;2228;48.140;11.488;2022-12-07T15:09:42;4.00;99.90
4431;DHT22;2228;48.140;11.488;2022-12-07T15:12:09;3.90;99.90
4431;DHT22;2228;48.140;11.488;2022-12-07T15:14:36;3.80;99.90
4431;DHT22;2228;48.140;11.488;2022-12-07T15:17:03;3.80;99.90
4431;DHT22;2228;48.140;11.488;2022-12-07T15:19:31;3.70;99.90
4431;DHT22;2228;48.140;11.488;2022-12-07T15:21:58;3.60;99.90
4431;DHT22;2228;48.140;11.488;2022-12-07T15:24:25;3.60;99.90
4431;DHT22;2228;48.140;11.488;2022-12-07T15:26:53;3.60;99.90
4431;DHT22;2228;48.140;11.488;2022-12-07T15:29:20;3.50;99.90
4431;DHT22;2228;48.140;11.488;2022-12-07T15:31:48;3.50;99.90
4431;DHT22;2228;48.140;11.488;2022-12-07T15:34:15;3.50;99.90
4431;DHT22;2228;48.140;11.488;2022-12-07T15:36:44;3.50;99.90
4431;DHT22;2228;48.140;11.488;2022-12-07T15:39:11;3.50;99.90
4431;DHT22;2228;48.140;11.488;2022-12-07T15:41:38;3.50;99.90
4431;DHT22;2228;48.140;11.488;2022-12-07T15:44:05;3.40;99.90
4431;DHT22;2228;48.140;11.488;2022-12-07T15:46:49;3.30;99.90
4431;DHT22;2228;48.140;11.488;2022-12-07T15:49:18;3.30;99.90
4431;DHT22;2228;48.140;11.488;2022-12-07T15:51:47;3.50;99.90
4431;DHT22;2228;48.140;11.488;2022-12-07T15:54:19;3.50;99.90
4431;DHT22;2228;48.140;11.488;2022-12-07T15:56:47;3.60;99.90
4431;DHT22;2228;48.140;11.488;2022-12-07T15:59:14;3.50;99.90
4431;DHT22;2228;48.140;11.488;2022-12-07T16:01:41;3.20;99.90
4431;DHT22;2228;48.140;11.488;2022-12-07T16:04:08;2.90;99.90
4431;DHT22;2228;48.140;11.488;2022-12-07T16:06:37;2.80;99.90
4431;DHT22;2228;48.140;11.488;2022-12-07T16:09:06;2.90;99.90
4431;DHT22;2228;48.140;11.488;2022-12-07T16:11:33;2.70;99.90
4431;DHT22;2228;48.140;11.488;2022-12-07T16:14:01;2.80;99.90
4431;DHT22;2228;48.140;11.488;2022-12-07T16:16:28;2.80;99.90
4431;DHT22;2228;48.140;11.488;2022-12-07T16:18:55;2.80;99.90
4431;DHT22;2228;48.140;11.488;2022-12-07T16:21:22;2.80;99.90
4431;DHT22;2228;48.140;11.488;2022-12-07T16:23:49;2.80;99.90
4431;DHT22;2228;48.140;11.488;2022-12-07T16:26:19;2.80;99.90
4431;DHT22;2228;48.140;11.488;2022-12-07T16:28:49;2.70;99.90
4431;DHT22;2228;48.140;11.488;2022-12-07T16:31:18;2.60;99.90
4431;DHT22;2228;48.140;11.488;2022-12-07T16:33:45;2.50;99.90
4431;DHT22;2228;48.140;11.488;2022-12-07T16:36:13;2.70;99.90
4431;DHT22;2228;48.140;11.488;2022-12-07T16:38:42;2.80;99.90
4431;DHT22;2228;48.140;11.488;2022-12-07T16:41:09;2.60;99.90
4431;DHT22;2228;48.140;11.488;2022-12-07T16:43:38;2.50;99.90
4431;DHT22;2228;48.140;11.488;2022-12-07T16:46:05;2.50;99.90